sensor_id;sensor_type;location;lat;lon;timestamp;P1;durP1;ratioP1;P2;durP2;ratioP2
24635;SDS011;12772;49.794;10.024;2022-12-31T00:03:57;1.98;;;1.60;;
24635;SDS011;12772;49.794;10.024;2022-12-31T00:07:59;1.35;;;1.23;;
24635;SDS011;12772;49.794;10.024;2022-12-31T00:12:02;1.33;;;1.33;;
24635;SDS011;12772;49.794;10.024;2022-12-31T00:16:11;1.25;;;1.20;;
24635;SDS011;12772;49.794;10.024;2022-12-31T00:20:15;1.42;;;1.33;;
24635;SDS011;12772;49.794;10.024;2022-12-31T00:24:17;1.50;;;1.42;;
24635;SDS011;12772;49.794;10.024;2022-12-31T00:28:19;2.08;;;1.70;;
24635;SDS011;12772;49.794;10.024;2022-12-31T00:32:21;1.30;;;1.30;;
24635;SDS011;12772;49.794;10.024;2022-12-31T00:36:25;1.20;;;1.20;;
24635;SDS011;12772;49.794;10.024;2022-12-31T00:40:29;1.60;;;1.50;;
24635;SDS011;12772;49.794;10.024;2022-12-31T00:44:31;1.30;;;1.20;;
24635;SDS011;12772;49.794;10.024;2022-12-31T00:48:34;1.30;;;1.20;;
24635;SDS011;12772;49.794;10.024;2022-12-31T00:52:39;1.08;;;1.08;;
24635;SDS011;12772;49.794;10.024;2022-12-31T00:56:42;1.13;;;1.02;;
24635;SDS011;12772;49.794;10.024;2022-12-31T01:00:44;1.05;;;1.05;;
24635;SDS011;12772;49.794;10.024;2022-12-31T01:04:46;1.15;;;1.13;;
24635;SDS011;12772;49.794;10.024;2022-12-31T01:08:48;0.95;;;0.93;;
24635;SDS011;12772;49.794;10.024;2022-12-31T01:12:51;1.50;;;1.20;;
24635;SDS011;12772;49.794;10.024;2022-12-31T01:16:53;2.03;;;0.90;;
24635;SDS011;12772;49.794;10.024;2022-12-31T01:20:55;1.42;;;1.00;;
24635;SDS011;12772;49.794;10.024;2022-12-31T01:24:57;1.73;;;1.17;;
24635;SDS011;12772;49.794;10.024;2022-12-31T01:28:59;2.33;;;1.23;;
24635;SDS011;12772;49.794;10.024;2022-12-31T01:33:01;1.70;;;1.45;;
24635;SDS011;12772;49.794;10.024;2022-12-31T01:37:03;1.38;;;1.27;;
24635;SDS011;12772;49.794;10.024;2022-12-31T01:41:05;1.63;;;1.10;;
24635;SDS011;12772;49.794;10.024;2022-12-31T01:45:08;1.85;;;1.45;;
24635;SDS011;12772;49.794;10.024;2022-12-31T01:53:37;1.30;;;1.20;;
24635;SDS011;12772;49.794;10.024;2022-12-31T01:57:39;3.28;;;1.30;;
24635;SDS011;12772;49.794;10.024;2022-12-31T02:01:42;2.28;;;1.25;;
24635;SDS011;12772;49.794;10.024;2022-12-31T02:05:47;0.80;;;0.80;;
24635;SDS011;12772;49.794;10.024;2022-12-31T02:09:58;0.90;;;0.90;;
24635;SDS011;12772;49.794;10.024;2022-12-31T02:14:05;0.65;;;0.65;;
24635;SDS011;12772;49.794;10.024;2022-12-31T02:18:17;0.63;;;0.63;;
24635;SDS011;12772;49.794;10.024;2022-12-31T02:26:48;0.57;;;0.57;;
24635;SDS011;12772;49.794;10.024;2022-12-31T02:31:14;0.93;;;0.93;;
24635;SDS011;12772;49.794;10.024;2022-12-31T02:35:28;0.68;;;0.68;;
24635;SDS011;12772;49.794;10.024;2022-12-31T02:39:48;0.70;;;0.70;;
24635;SDS011;12772;49.794;10.024;2022-12-31T02:43:51;1.13;;;0.90;;
24635;SDS011;12772;49.794;10.024;2022-12-31T02:52:37;1.67;;;1.00;;
24635;SDS011;12772;49.794;10.024;2022-12-31T02:57:24;1.20;;;0.90;;
24635;SDS011;12772;49.794;10.024;2022-12-31T03:01:38;0.68;;;0.68;;
24635;SDS011;12772;49.794;10.024;2022-12-31T03:06:02;1.00;;;0.90;;
24635;SDS011;12772;49.794;10.024;2022-12-31T03:10:05;1.48;;;0.98;;
24635;SDS011;12772;49.794;10.024;2022-12-31T03:14:07;1.35;;;0.93;;
24635;SDS011;12772;49.794;10.024;2022-12-31T03:18:13;1.42;;;1.20;;
24635;SDS011;12772;49.794;10.024;2022-12-31T03:22:17;1.52;;;0.80;;
24635;SDS011;12772;49.794;10.024;2022-12-31T03:26:28;0.80;;;0.80;;
24635;SDS011;12772;49.794;10.024;2022-12-31T03:30:30;2.47;;;1.45;;
24635;SDS011;12772;49.794;10.024;2022-12-31T03:34:32;1.88;;;0.90;;
24635;SDS011;12772;49.794;10.024;2022-12-31T03:38:34;1.55;;;0.80;;
24635;SDS011;12772;49.794;10.024;2022-12-31T03:42:37;0.98;;;0.80;;
24635;SDS011;12772;49.794;10.024;2022-12-31T03:46:39;2.25;;;0.90;;
24635;SDS011;12772;49.794;10.024;2022-12-31T03:50:41;1.25;;;1.15;;
24635;SDS011;12772;49.794;10.024;2022-12-31T03:54:43;0.75;;;0.73;;
24635;SDS011;12772;49.794;10.024;2022-12-31T03:58:45;0.75;;;0.75;;
24635;SDS011;12772;49.794;10.024;2022-12-31T04:02:48;0.68;;;0.68;;
24635;SDS011;12772;49.794;10.024;2022-12-31T04:06:50;3.60;;;1.05;;
24635;SDS011;12772;49.794;10.024;2022-12-31T04:10:52;1.00;;;0.88;;
24635;SDS011;12772;49.794;10.024;2022-12-31T04:14:54;0.70;;;0.70;;
24635;SDS011;12772;49.794;10.024;2022-12-31T04:18:56;1.85;;;1.13;;
24635;SDS011;12772;49.794;10.024;2022-12-31T04:22:58;1.33;;;0.90;;
24635;SDS011;12772;49.794;10.024;2022-12-31T04:27:00;1.15;;;0.82;;
24635;SDS011;12772;49.794;10.024;2022-12-31T04:31:02;2.53;;;0.95;;
24635;SDS011;12772;49.794;10.024;2022-12-31T04:35:05;2.33;;;1.08;;
24635;SDS011;12772;49.794;10.024;2022-12-31T04:39:07;0.80;;;0.80;;
24635;SDS011;12772;49.794;10.024;2022-12-31T04:43:09;0.82;;;0.82;;
24635;SDS011;12772;49.794;10.024;2022-12-31T04:47:11;0.70;;;0.70;;
24635;SDS011;12772;49.794;10.024;2022-12-31T04:51:13;2.50;;;1.00;;
24635;SDS011;12772;49.794;10.024;2022-12-31T04:55:15;1.13;;;0.80;;
24635;SDS011;12772;49.794;10.024;2022-12-31T04:59:17;1.10;;;1.00;;
24635;SDS011;12772;49.794;10.024;2022-12-31T05:03:20;2.80;;;1.23;;
24635;SDS011;12772;49.794;10.024;2022-12-31T05:07:23;1.58;;;0.80;;
24635;SDS011;12772;49.794;10.024;2022-12-31T05:11:25;1.42;;;1.20;;
24635;SDS011;12772;49.794;10.024;2022-12-31T05:15:27;1.13;;;0.90;;
24635;SDS011;12772;49.794;10.024;2022-12-31T05:19:29;1.40;;;0.88;;
24635;SDS011;12772;49.794;10.024;2022-12-31T05:23:31;1.48;;;0.90;;
24635;SDS011;12772;49.794;10.024;2022-12-31T05:27:33;1.13;;;1.00;;
24635;SDS011;12772;49.794;10.024;2022-12-31T05:31:37;1.38;;;1.02;;
24635;SDS011;12772;49.794;10.024;2022-12-31T05:35:39;1.48;;;1.05;;
24635;SDS011;12772;49.794;10.024;2022-12-31T05:39:41;4.97;;;1.13;;
24635;SDS011;12772;49.794;10.024;2022-12-31T05:43:43;1.55;;;1.00;;
24635;SDS011;12772;49.794;10.024;2022-12-31T05:47:45;0.70;;;0.70;;
24635;SDS011;12772;49.794;10.024;2022-12-31T05:51:47;0.85;;;0.80;;
24635;SDS011;12772;49.794;10.024;2022-12-31T05:55:49;1.08;;;0.65;;
24635;SDS011;12772;49.794;10.024;2022-12-31T05:59:51;1.27;;;0.90;;
24635;SDS011;12772;49.794;10.024;2022-12-31T06:03:53;1.88;;;0.90;;
24635;SDS011;12772;49.794;10.024;2022-12-31T06:07:55;0.70;;;0.70;;
24635;SDS011;12772;49.794;10.024;2022-12-31T06:11:57;0.93;;;0.88;;
24635;SDS011;12772;49.794;10.024;2022-12-31T06:16:05;0.85;;;0.73;;
24635;SDS011;12772;49.794;10.024;2022-12-31T06:20:09;0.65;;;0.65;;
24635;SDS011;12772;49.794;10.024;2022-12-31T06:24:11;0.73;;;0.73;;
24635;SDS011;12772;49.794;10.024;2022-12-31T06:28:13;1.05;;;0.60;;
24635;SDS011;12772;49.794;10.024;2022-12-31T06:32:15;1.17;;;0.82;;
24635;SDS011;12772;49.794;10.024;2022-12-31T06:36:17;1.33;;;0.80;;
24635;SDS011;12772;49.794;10.024;2022-12-31T06:40:21;1.33;;;0.90;;
24635;SDS011;12772;49.794;10.024;2022-12-31T06:44:23;1.60;;;0.95;;
24635;SDS011;12772;49.794;10.024;2022-12-31T06:48:25;1.58;;;0.88;;
24635;SDS011;12772;49.794;10.024;2022-12-31T06:52:27;2.38;;;0.88;;
24635;SDS011;12772;49.794;10.024;2022-12-31T06:56:29;0.98;;;0.90;;
24635;SDS011;12772;49.794;10.024;2022-12-31T07:00:31;1.50;;;1.00;;
24635;SDS011;12772;49.794;10.024;2022-12-31T07:09:02;0.95;;;0.70;;
24635;SDS011;12772;49.794;10.024;2022-12-31T07:13:09;1.48;;;0.90;;
24635;SDS011;12772;49.794;10.024;2022-12-31T07:22:20;0.77;;;0.77;;
24635;SDS011;12772;49.794;10.024;2022-12-31T07:31:19;2.00;;;1.02;;
24635;SDS011;12772;49.794;10.024;2022-12-31T07:39:52;0.65;;;0.60;;
24635;SDS011;12772;49.794;10.024;2022-12-31T07:48:29;0.98;;;0.98;;
24635;SDS011;12772;49.794;10.024;2022-12-31T07:52:31;1.00;;;1.00;;
24635;SDS011;12772;49.794;10.024;2022-12-31T07:56:33;1.10;;;1.00;;
24635;SDS011;12772;49.794;10.024;2022-12-31T08:00:35;5.18;;;1.10;;
24635;SDS011;12772;49.794;10.024;2022-12-31T08:04:41;0.90;;;0.90;;
24635;SDS011;12772;49.794;10.024;2022-12-31T08:13:11;1.55;;;1.08;;
24635;SDS011;12772;49.794;10.024;2022-12-31T08:17:14;0.90;;;0.90;;
24635;SDS011;12772;49.794;10.024;2022-12-31T08:39:41;1.05;;;1.05;;
24635;SDS011;12772;49.794;10.024;2022-12-31T08:52:30;1.20;;;1.05;;
24635;SDS011;12772;49.794;10.024;2022-12-31T08:56:33;1.10;;;1.00;;
24635;SDS011;12772;49.794;10.024;2022-12-31T09:00:43;1.05;;;0.93;;
24635;SDS011;12772;49.794;10.024;2022-12-31T09:05:00;0.82;;;0.82;;
24635;SDS011;12772;49.794;10.024;2022-12-31T09:18:16;1.27;;;0.98;;
24635;SDS011;12772;49.794;10.024;2022-12-31T09:22:18;1.00;;;1.00;;
24635;SDS011;12772;49.794;10.024;2022-12-31T09:27:24;1.05;;;1.00;;
24635;SDS011;12772;49.794;10.024;2022-12-31T09:31:09;1.13;;;0.90;;
24635;SDS011;12772;49.794;10.024;2022-12-31T09:39:45;1.45;;;0.82;;
24635;SDS011;12772;49.794;10.024;2022-12-31T09:57:16;1.17;;;0.95;;
24635;SDS011;12772;49.794;10.024;2022-12-31T10:19:32;1.20;;;1.10;;
24635;SDS011;12772;49.794;10.024;2022-12-31T10:24:06;0.80;;;0.80;;
24635;SDS011;12772;49.794;10.024;2022-12-31T10:28:37;1.17;;;1.13;;
24635;SDS011;12772;49.794;10.024;2022-12-31T10:41:43;1.33;;;1.02;;
24635;SDS011;12772;49.794;10.024;2022-12-31T11:17:45;0.93;;;0.80;;
24635;SDS011;12772;49.794;10.024;2022-12-31T11:21:59;0.90;;;0.90;;
24635;SDS011;12772;49.794;10.024;2022-12-31T11:26:21;1.10;;;1.00;;
24635;SDS011;12772;49.794;10.024;2022-12-31T11:30:32;1.95;;;1.10;;
24635;SDS011;12772;49.794;10.024;2022-12-31T11:38:49;1.00;;;1.00;;
24635;SDS011;12772;49.794;10.024;2022-12-31T11:43:20;1.42;;;1.00;;
24635;SDS011;12772;49.794;10.024;2022-12-31T11:56:05;1.38;;;1.20;;
24635;SDS011;12772;49.794;10.024;2022-12-31T12:00:21;1.00;;;1.00;;
24635;SDS011;12772;49.794;10.024;2022-12-31T12:04:25;1.92;;;1.80;;
24635;SDS011;12772;49.794;10.024;2022-12-31T12:08:28;3.65;;;1.30;;
24635;SDS011;12772;49.794;10.024;2022-12-31T12:12:39;1.85;;;1.45;;
24635;SDS011;12772;49.794;10.024;2022-12-31T12:16:42;1.67;;;1.40;;
24635;SDS011;12772;49.794;10.024;2022-12-31T12:20:44;1.40;;;1.30;;
24635;SDS011;12772;49.794;10.024;2022-12-31T12:24:53;2.00;;;1.00;;
24635;SDS011;12772;49.794;10.024;2022-12-31T12:29:17;1.55;;;1.00;;
24635;SDS011;12772;49.794;10.024;2022-12-31T12:33:22;1.33;;;1.15;;
24635;SDS011;12772;49.794;10.024;2022-12-31T12:37:31;0.98;;;0.98;;
24635;SDS011;12772;49.794;10.024;2022-12-31T12:41:35;1.00;;;1.00;;
24635;SDS011;12772;49.794;10.024;2022-12-31T12:45:46;2.05;;;1.65;;
24635;SDS011;12772;49.794;10.024;2022-12-31T12:49:51;1.80;;;0.90;;
24635;SDS011;12772;49.794;10.024;2022-12-31T12:53:58;1.85;;;1.00;;
24635;SDS011;12772;49.794;10.024;2022-12-31T13:02:37;1.05;;;1.05;;
24635;SDS011;12772;49.794;10.024;2022-12-31T13:07:08;3.03;;;1.90;;
24635;SDS011;12772;49.794;10.024;2022-12-31T13:11:23;2.60;;;1.52;;
24635;SDS011;12772;49.794;10.024;2022-12-31T13:28:49;1.55;;;0.80;;
24635;SDS011;12772;49.794;10.024;2022-12-31T13:33:04;0.93;;;0.90;;
24635;SDS011;12772;49.794;10.024;2022-12-31T13:37:17;1.65;;;0.90;;
24635;SDS011;12772;49.794;10.024;2022-12-31T13:41:36;1.30;;;1.20;;
24635;SDS011;12772;49.794;10.024;2022-12-31T13:45:46;1.23;;;1.05;;
24635;SDS011;12772;49.794;10.024;2022-12-31T13:49:58;0.95;;;0.88;;
24635;SDS011;12772;49.794;10.024;2022-12-31T14:07:04;1.65;;;1.05;;
24635;SDS011;12772;49.794;10.024;2022-12-31T14:11:40;2.00;;;1.70;;
24635;SDS011;12772;49.794;10.024;2022-12-31T14:15:49;2.50;;;2.30;;
24635;SDS011;12772;49.794;10.024;2022-12-31T14:20:46;3.92;;;3.50;;
24635;SDS011;12772;49.794;10.024;2022-12-31T14:24:43;1.50;;;1.15;;
24635;SDS011;12772;49.794;10.024;2022-12-31T14:28:47;1.60;;;1.50;;
24635;SDS011;12772;49.794;10.024;2022-12-31T14:33:00;1.67;;;1.30;;
24635;SDS011;12772;49.794;10.024;2022-12-31T14:58:52;0.77;;;0.77;;
24635;SDS011;12772;49.794;10.024;2022-12-31T15:03:06;1.05;;;1.00;;
24635;SDS011;12772;49.794;10.024;2022-12-31T15:07:35;1.63;;;0.95;;
24635;SDS011;12772;49.794;10.024;2022-12-31T15:11:49;1.40;;;1.30;;
24635;SDS011;12772;49.794;10.024;2022-12-31T15:16:24;2.45;;;1.10;;
24635;SDS011;12772;49.794;10.024;2022-12-31T15:29:32;1.70;;;1.08;;
24635;SDS011;12772;49.794;10.024;2022-12-31T15:33:38;1.20;;;1.10;;
24635;SDS011;12772;49.794;10.024;2022-12-31T15:37:41;1.90;;;1.67;;
24635;SDS011;12772;49.794;10.024;2022-12-31T15:41:44;1.25;;;1.15;;
24635;SDS011;12772;49.794;10.024;2022-12-31T15:45:49;1.58;;;1.40;;
24635;SDS011;12772;49.794;10.024;2022-12-31T15:49:53;1.90;;;1.75;;
24635;SDS011;12772;49.794;10.024;2022-12-31T15:53:57;2.00;;;1.90;;
24635;SDS011;12772;49.794;10.024;2022-12-31T15:58:09;2.03;;;1.83;;
24635;SDS011;12772;49.794;10.024;2022-12-31T16:02:17;2.42;;;1.90;;
24635;SDS011;12772;49.794;10.024;2022-12-31T16:06:24;1.40;;;1.30;;
24635;SDS011;12772;49.794;10.024;2022-12-31T16:10:30;2.45;;;1.42;;
24635;SDS011;12772;49.794;10.024;2022-12-31T16:14:33;2.00;;;1.67;;
24635;SDS011;12772;49.794;10.024;2022-12-31T16:18:42;1.13;;;1.08;;
24635;SDS011;12772;49.794;10.024;2022-12-31T16:22:49;3.78;;;2.22;;
24635;SDS011;12772;49.794;10.024;2022-12-31T16:26:59;3.10;;;2.65;;
24635;SDS011;12772;49.794;10.024;2022-12-31T16:31:05;2.63;;;1.85;;
24635;SDS011;12772;49.794;10.024;2022-12-31T16:35:30;4.25;;;3.55;;
24635;SDS011;12772;49.794;10.024;2022-12-31T16:39:34;2.22;;;1.90;;
24635;SDS011;12772;49.794;10.024;2022-12-31T16:43:38;2.60;;;2.08;;
24635;SDS011;12772;49.794;10.024;2022-12-31T16:47:42;1.98;;;1.65;;
24635;SDS011;12772;49.794;10.024;2022-12-31T16:51:44;3.05;;;2.20;;
24635;SDS011;12772;49.794;10.024;2022-12-31T16:55:50;2.00;;;1.80;;
24635;SDS011;12772;49.794;10.024;2022-12-31T17:00:14;1.73;;;1.63;;
24635;SDS011;12772;49.794;10.024;2022-12-31T17:04:18;2.28;;;2.08;;
24635;SDS011;12772;49.794;10.024;2022-12-31T17:08:22;2.15;;;1.98;;
24635;SDS011;12772;49.794;10.024;2022-12-31T17:12:27;2.83;;;2.58;;
24635;SDS011;12772;49.794;10.024;2022-12-31T17:16:33;2.85;;;2.65;;
24635;SDS011;12772;49.794;10.024;2022-12-31T17:20:55;2.80;;;2.60;;
24635;SDS011;12772;49.794;10.024;2022-12-31T17:25:12;4.28;;;3.97;;
24635;SDS011;12772;49.794;10.024;2022-12-31T17:29:27;4.40;;;4.00;;
24635;SDS011;12772;49.794;10.024;2022-12-31T17:33:29;4.82;;;3.67;;
24635;SDS011;12772;49.794;10.024;2022-12-31T17:37:31;3.60;;;3.30;;
24635;SDS011;12772;49.794;10.024;2022-12-31T17:41:33;4.38;;;3.97;;
24635;SDS011;12772;49.794;10.024;2022-12-31T17:45:35;3.67;;;3.38;;
24635;SDS011;12772;49.794;10.024;2022-12-31T17:49:39;2.80;;;2.60;;
24635;SDS011;12772;49.794;10.024;2022-12-31T17:53:44;1.60;;;1.50;;
24635;SDS011;12772;49.794;10.024;2022-12-31T17:57:50;5.63;;;2.42;;
24635;SDS011;12772;49.794;10.024;2022-12-31T18:01:55;2.90;;;1.73;;
24635;SDS011;12772;49.794;10.024;2022-12-31T18:06:00;1.80;;;1.70;;
24635;SDS011;12772;49.794;10.024;2022-12-31T18:10:02;2.35;;;1.45;;
24635;SDS011;12772;49.794;10.024;2022-12-31T18:14:04;1.52;;;1.40;;
24635;SDS011;12772;49.794;10.024;2022-12-31T18:18:25;1.40;;;1.30;;
24635;SDS011;12772;49.794;10.024;2022-12-31T18:22:29;1.10;;;1.10;;
24635;SDS011;12772;49.794;10.024;2022-12-31T18:26:31;2.22;;;1.33;;
24635;SDS011;12772;49.794;10.024;2022-12-31T18:30:34;2.78;;;1.80;;
24635;SDS011;12772;49.794;10.024;2022-12-31T18:34:36;2.03;;;1.80;;
24635;SDS011;12772;49.794;10.024;2022-12-31T18:38:38;2.17;;;1.98;;
24635;SDS011;12772;49.794;10.024;2022-12-31T18:42:40;4.60;;;4.20;;
24635;SDS011;12772;49.794;10.024;2022-12-31T18:46:42;1.98;;;1.88;;
24635;SDS011;12772;49.794;10.024;2022-12-31T18:50:44;1.50;;;1.40;;
24635;SDS011;12772;49.794;10.024;2022-12-31T18:54:47;1.85;;;1.75;;
24635;SDS011;12772;49.794;10.024;2022-12-31T18:58:49;1.58;;;1.33;;
24635;SDS011;12772;49.794;10.024;2022-12-31T19:02:51;1.38;;;1.27;;
24635;SDS011;12772;49.794;10.024;2022-12-31T19:06:54;2.47;;;2.03;;
24635;SDS011;12772;49.794;10.024;2022-12-31T19:10:56;1.80;;;1.70;;
24635;SDS011;12772;49.794;10.024;2022-12-31T19:14:58;1.70;;;1.60;;
24635;SDS011;12772;49.794;10.024;2022-12-31T19:19:00;3.15;;;2.00;;
24635;SDS011;12772;49.794;10.024;2022-12-31T19:23:02;1.83;;;1.73;;
24635;SDS011;12772;49.794;10.024;2022-12-31T19:27:04;1.80;;;1.70;;
24635;SDS011;12772;49.794;10.024;2022-12-31T19:31:06;1.50;;;1.40;;
24635;SDS011;12772;49.794;10.024;2022-12-31T19:35:09;1.50;;;1.40;;
24635;SDS011;12772;49.794;10.024;2022-12-31T19:39:14;1.70;;;1.60;;
24635;SDS011;12772;49.794;10.024;2022-12-31T19:43:18;1.75;;;1.65;;
24635;SDS011;12772;49.794;10.024;2022-12-31T19:47:21;3.40;;;3.10;;
24635;SDS011;12772;49.794;10.024;2022-12-31T19:51:23;2.58;;;2.38;;
24635;SDS011;12772;49.794;10.024;2022-12-31T19:55:25;2.30;;;2.10;;
24635;SDS011;12772;49.794;10.024;2022-12-31T19:59:28;1.65;;;1.55;;
24635;SDS011;12772;49.794;10.024;2022-12-31T20:03:30;2.10;;;1.90;;
24635;SDS011;12772;49.794;10.024;2022-12-31T20:07:33;2.42;;;2.33;;
24635;SDS011;12772;49.794;10.024;2022-12-31T20:11:35;2.20;;;2.00;;
24635;SDS011;12772;49.794;10.024;2022-12-31T20:15:37;2.00;;;1.80;;
24635;SDS011;12772;49.794;10.024;2022-12-31T20:19:40;2.53;;;2.00;;
24635;SDS011;12772;49.794;10.024;2022-12-31T20:23:42;2.05;;;1.95;;
24635;SDS011;12772;49.794;10.024;2022-12-31T20:27:44;2.38;;;2.25;;
24635;SDS011;12772;49.794;10.024;2022-12-31T20:31:46;2.90;;;2.60;;
24635;SDS011;12772;49.794;10.024;2022-12-31T20:35:49;2.63;;;2.42;;
24635;SDS011;12772;49.794;10.024;2022-12-31T20:39:51;3.35;;;2.97;;
24635;SDS011;12772;49.794;10.024;2022-12-31T20:43:53;3.42;;;3.10;;
24635;SDS011;12772;49.794;10.024;2022-12-31T20:47:55;2.92;;;2.70;;
24635;SDS011;12772;49.794;10.024;2022-12-31T20:51:57;2.47;;;2.28;;
24635;SDS011;12772;49.794;10.024;2022-12-31T20:56:03;2.33;;;2.13;;
24635;SDS011;12772;49.794;10.024;2022-12-31T21:00:06;3.25;;;2.10;;
24635;SDS011;12772;49.794;10.024;2022-12-31T21:04:09;8.35;;;7.10;;
24635;SDS011;12772;49.794;10.024;2022-12-31T21:08:11;3.75;;;3.45;;
24635;SDS011;12772;49.794;10.024;2022-12-31T21:12:12;3.63;;;2.53;;
24635;SDS011;12772;49.794;10.024;2022-12-31T21:16:32;2.95;;;2.75;;
24635;SDS011;12772;49.794;10.024;2022-12-31T21:20:35;2.55;;;2.35;;
24635;SDS011;12772;49.794;10.024;2022-12-31T21:24:37;2.50;;;2.30;;
24635;SDS011;12772;49.794;10.024;2022-12-31T21:28:39;3.75;;;3.42;;
24635;SDS011;12772;49.794;10.024;2022-12-31T21:32:41;4.50;;;4.10;;
24635;SDS011;12772;49.794;10.024;2022-12-31T21:36:43;4.78;;;3.20;;
24635;SDS011;12772;49.794;10.024;2022-12-31T21:40:45;3.33;;;2.55;;
24635;SDS011;12772;49.794;10.024;2022-12-31T21:44:48;2.85;;;2.65;;
24635;SDS011;12772;49.794;10.024;2022-12-31T21:48:53;2.83;;;2.63;;
24635;SDS011;12772;49.794;10.024;2022-12-31T21:52:56;2.10;;;2.00;;
24635;SDS011;12772;49.794;10.024;2022-12-31T21:56:59;2.60;;;2.40;;
24635;SDS011;12772;49.794;10.024;2022-12-31T22:01:01;2.60;;;2.40;;
24635;SDS011;12772;49.794;10.024;2022-12-31T22:05:20;2.45;;;2.25;;
24635;SDS011;12772;49.794;10.024;2022-12-31T22:09:22;2.30;;;2.10;;
24635;SDS011;12772;49.794;10.024;2022-12-31T22:13:25;3.17;;;2.10;;
24635;SDS011;12772;49.794;10.024;2022-12-31T22:17:27;2.60;;;2.40;;
24635;SDS011;12772;49.794;10.024;2022-12-31T22:21:29;3.55;;;2.38;;
24635;SDS011;12772;49.794;10.024;2022-12-31T22:25:32;3.67;;;2.78;;
24635;SDS011;12772;49.794;10.024;2022-12-31T22:29:35;5.93;;;2.80;;
24635;SDS011;12772;49.794;10.024;2022-12-31T22:33:37;4.47;;;2.90;;
24635;SDS011;12772;49.794;10.024;2022-12-31T22:37:39;3.00;;;2.42;;
24635;SDS011;12772;49.794;10.024;2022-12-31T22:41:41;3.22;;;2.92;;
24635;SDS011;12772;49.794;10.024;2022-12-31T22:45:43;3.22;;;2.92;;
24635;SDS011;12772;49.794;10.024;2022-12-31T22:49:45;6.00;;;5.50;;
24635;SDS011;12772;49.794;10.024;2022-12-31T22:53:47;4.78;;;4.38;;
24635;SDS011;12772;49.794;10.024;2022-12-31T22:57:49;7.95;;;7.15;;
24635;SDS011;12772;49.794;10.024;2022-12-31T23:01:51;12.77;;;8.23;;
24635;SDS011;12772;49.794;10.024;2022-12-31T23:05:53;43.17;;;32.78;;
24635;SDS011;12772;49.794;10.024;2022-12-31T23:09:55;44.13;;;31.38;;
24635;SDS011;12772;49.794;10.024;2022-12-31T23:14:17;35.75;;;29.67;;
24635;SDS011;12772;49.794;10.024;2022-12-31T23:18:37;35.05;;;28.65;;
24635;SDS011;12772;49.794;10.024;2022-12-31T23:22:58;22.98;;;18.23;;
24635;SDS011;12772;49.794;10.024;2022-12-31T23:27:07;22.67;;;16.63;;
24635;SDS011;12772;49.794;10.024;2022-12-31T23:31:10;14.27;;;12.57;;
24635;SDS011;12772;49.794;10.024;2022-12-31T23:35:12;15.25;;;11.43;;
24635;SDS011;12772;49.794;10.024;2022-12-31T23:39:14;10.60;;;8.05;;
24635;SDS011;12772;49.794;10.024;2022-12-31T23:43:20;8.65;;;6.90;;
24635;SDS011;12772;49.794;10.024;2022-12-31T23:47:23;7.07;;;5.22;;
24635;SDS011;12772;49.794;10.024;2022-12-31T23:51:25;6.43;;;5.70;;
24635;SDS011;12772;49.794;10.024;2022-12-31T23:55:27;8.60;;;6.20;;
24635;SDS011;12772;49.794;10.024;2022-12-31T23:59:29;7.10;;;6.38;;
